sensor_id;sensor_type;location;lat;lon;timestamp;P1;durP1;ratioP1;P2;durP2;ratioP2
15958;SDS011;8078;47.822;9.402;2023-01-23T00:00:28;47.03;;;17.33;;
15958;SDS011;8078;47.822;9.402;2023-01-23T00:02:55;122.47;;;21.73;;
15958;SDS011;8078;47.822;9.402;2023-01-23T00:05:20;87.23;;;19.70;;
15958;SDS011;8078;47.822;9.402;2023-01-23T00:07:46;139.47;;;24.90;;
15958;SDS011;8078;47.822;9.402;2023-01-23T00:10:11;40.47;;;17.63;;
15958;SDS011;8078;47.822;9.402;2023-01-23T00:12:39;48.67;;;19.23;;
15958;SDS011;8078;47.822;9.402;2023-01-23T00:15:06;55.97;;;18.43;;
15958;SDS011;8078;47.822;9.402;2023-01-23T00:17:32;47.03;;;18.73;;
15958;SDS011;8078;47.822;9.402;2023-01-23T00:19:57;43.07;;;17.37;;
15958;SDS011;8078;47.822;9.402;2023-01-23T00:22:24;46.30;;;18.67;;
15958;SDS011;8078;47.822;9.402;2023-01-23T00:24:50;38.33;;;17.90;;
15958;SDS011;8078;47.822;9.402;2023-01-23T00:27:15;41.07;;;17.77;;
15958;SDS011;8078;47.822;9.402;2023-01-23T00:29:41;41.40;;;17.30;;
15958;SDS011;8078;47.822;9.402;2023-01-23T00:32:06;41.10;;;16.97;;
15958;SDS011;8078;47.822;9.402;2023-01-23T00:34:32;40.80;;;17.50;;
15958;SDS011;8078;47.822;9.402;2023-01-23T00:36:57;36.67;;;18.30;;
15958;SDS011;8078;47.822;9.402;2023-01-23T00:39:23;35.70;;;17.63;;
15958;SDS011;8078;47.822;9.402;2023-01-23T00:41:49;41.90;;;18.17;;
15958;SDS011;8078;47.822;9.402;2023-01-23T00:44:14;46.50;;;19.07;;
15958;SDS011;8078;47.822;9.402;2023-01-23T00:46:40;41.17;;;18.93;;
15958;SDS011;8078;47.822;9.402;2023-01-23T00:49:06;39.37;;;18.80;;
15958;SDS011;8078;47.822;9.402;2023-01-23T00:51:32;40.20;;;18.70;;
15958;SDS011;8078;47.822;9.402;2023-01-23T00:53:59;44.80;;;18.23;;
15958;SDS011;8078;47.822;9.402;2023-01-23T00:56:25;54.07;;;19.53;;
15958;SDS011;8078;47.822;9.402;2023-01-23T00:58:50;52.03;;;21.20;;
15958;SDS011;8078;47.822;9.402;2023-01-23T01:01:16;45.13;;;20.07;;
15958;SDS011;8078;47.822;9.402;2023-01-23T01:03:42;44.63;;;19.47;;
15958;SDS011;8078;47.822;9.402;2023-01-23T01:06:08;53.47;;;21.27;;
15958;SDS011;8078;47.822;9.402;2023-01-23T01:08:34;58.33;;;21.50;;
15958;SDS011;8078;47.822;9.402;2023-01-23T01:10:59;49.83;;;21.60;;
15958;SDS011;8078;47.822;9.402;2023-01-23T01:13:25;50.43;;;21.83;;
15958;SDS011;8078;47.822;9.402;2023-01-23T01:15:52;50.47;;;21.40;;
15958;SDS011;8078;47.822;9.402;2023-01-23T01:18:18;50.67;;;21.60;;
15958;SDS011;8078;47.822;9.402;2023-01-23T01:20:44;51.97;;;21.47;;
15958;SDS011;8078;47.822;9.402;2023-01-23T01:23:10;51.50;;;21.23;;
15958;SDS011;8078;47.822;9.402;2023-01-23T01:25:36;49.27;;;22.73;;
15958;SDS011;8078;47.822;9.402;2023-01-23T01:28:02;52.23;;;21.10;;
15958;SDS011;8078;47.822;9.402;2023-01-23T01:30:28;47.17;;;19.70;;
15958;SDS011;8078;47.822;9.402;2023-01-23T01:32:54;49.03;;;19.40;;
15958;SDS011;8078;47.822;9.402;2023-01-23T01:35:20;43.83;;;20.07;;
15958;SDS011;8078;47.822;9.402;2023-01-23T01:37:47;42.00;;;17.90;;
15958;SDS011;8078;47.822;9.402;2023-01-23T01:40:14;43.33;;;18.37;;
15958;SDS011;8078;47.822;9.402;2023-01-23T01:42:43;38.73;;;17.37;;
15958;SDS011;8078;47.822;9.402;2023-01-23T01:48:14;39.37;;;16.50;;
15958;SDS011;8078;47.822;9.402;2023-01-23T01:50:41;40.63;;;17.67;;
15958;SDS011;8078;47.822;9.402;2023-01-23T01:53:07;40.13;;;18.20;;
15958;SDS011;8078;47.822;9.402;2023-01-23T01:55:33;41.30;;;18.80;;
15958;SDS011;8078;47.822;9.402;2023-01-23T01:57:59;41.43;;;18.57;;
15958;SDS011;8078;47.822;9.402;2023-01-23T02:00:25;36.43;;;17.20;;
15958;SDS011;8078;47.822;9.402;2023-01-23T02:02:55;52.33;;;18.77;;
15958;SDS011;8078;47.822;9.402;2023-01-23T02:05:30;37.90;;;17.07;;
15958;SDS011;8078;47.822;9.402;2023-01-23T02:11:02;36.73;;;16.97;;
15958;SDS011;8078;47.822;9.402;2023-01-23T02:13:33;42.20;;;17.87;;
15958;SDS011;8078;47.822;9.402;2023-01-23T02:18:34;35.87;;;16.47;;
15958;SDS011;8078;47.822;9.402;2023-01-23T02:21:03;40.30;;;17.20;;
15958;SDS011;8078;47.822;9.402;2023-01-23T02:26:21;40.50;;;16.77;;
15958;SDS011;8078;47.822;9.402;2023-01-23T02:28:51;40.83;;;17.37;;
15958;SDS011;8078;47.822;9.402;2023-01-23T02:31:17;36.33;;;16.60;;
15958;SDS011;8078;47.822;9.402;2023-01-23T02:33:54;37.23;;;16.47;;
15958;SDS011;8078;47.822;9.402;2023-01-23T02:36:23;36.10;;;17.03;;
15958;SDS011;8078;47.822;9.402;2023-01-23T02:41:21;44.27;;;19.60;;
15958;SDS011;8078;47.822;9.402;2023-01-23T02:43:56;39.20;;;16.47;;
15958;SDS011;8078;47.822;9.402;2023-01-23T02:46:24;34.57;;;17.30;;
15958;SDS011;8078;47.822;9.402;2023-01-23T02:48:50;38.50;;;16.10;;
15958;SDS011;8078;47.822;9.402;2023-01-23T02:51:16;41.73;;;18.53;;
15958;SDS011;8078;47.822;9.402;2023-01-23T02:53:42;43.60;;;17.27;;
15958;SDS011;8078;47.822;9.402;2023-01-23T02:56:08;40.17;;;17.07;;
15958;SDS011;8078;47.822;9.402;2023-01-23T02:58:33;38.37;;;17.30;;
15958;SDS011;8078;47.822;9.402;2023-01-23T03:01:18;41.40;;;18.37;;
15958;SDS011;8078;47.822;9.402;2023-01-23T03:03:43;40.37;;;17.20;;
15958;SDS011;8078;47.822;9.402;2023-01-23T03:06:09;40.23;;;18.37;;
15958;SDS011;8078;47.822;9.402;2023-01-23T03:08:35;34.73;;;17.03;;
15958;SDS011;8078;47.822;9.402;2023-01-23T03:11:11;37.07;;;16.73;;
15958;SDS011;8078;47.822;9.402;2023-01-23T03:13:38;42.10;;;18.53;;
15958;SDS011;8078;47.822;9.402;2023-01-23T03:16:03;45.73;;;19.20;;
15958;SDS011;8078;47.822;9.402;2023-01-23T03:18:30;38.37;;;17.90;;
15958;SDS011;8078;47.822;9.402;2023-01-23T03:21:06;38.03;;;16.63;;
15958;SDS011;8078;47.822;9.402;2023-01-23T03:23:32;36.87;;;16.13;;
15958;SDS011;8078;47.822;9.402;2023-01-23T03:25:58;48.30;;;17.97;;
15958;SDS011;8078;47.822;9.402;2023-01-23T03:28:24;36.07;;;16.50;;
15958;SDS011;8078;47.822;9.402;2023-01-23T03:31:09;37.37;;;17.03;;
15958;SDS011;8078;47.822;9.402;2023-01-23T03:33:35;40.13;;;17.57;;
15958;SDS011;8078;47.822;9.402;2023-01-23T03:36:04;36.77;;;17.30;;
15958;SDS011;8078;47.822;9.402;2023-01-23T03:38:30;38.53;;;18.63;;
15958;SDS011;8078;47.822;9.402;2023-01-23T03:40:55;38.43;;;16.53;;
15958;SDS011;8078;47.822;9.402;2023-01-23T03:43:39;45.60;;;17.50;;
15958;SDS011;8078;47.822;9.402;2023-01-23T03:46:05;37.47;;;16.00;;
15958;SDS011;8078;47.822;9.402;2023-01-23T03:48:30;43.77;;;17.60;;
15958;SDS011;8078;47.822;9.402;2023-01-23T03:50:56;32.90;;;15.77;;
15958;SDS011;8078;47.822;9.402;2023-01-23T03:53:21;39.23;;;15.77;;
15958;SDS011;8078;47.822;9.402;2023-01-23T03:55:49;35.87;;;15.33;;
15958;SDS011;8078;47.822;9.402;2023-01-23T03:58:14;36.60;;;16.33;;
15958;SDS011;8078;47.822;9.402;2023-01-23T04:00:40;37.40;;;15.37;;
15958;SDS011;8078;47.822;9.402;2023-01-23T04:03:06;37.13;;;16.00;;
15958;SDS011;8078;47.822;9.402;2023-01-23T04:05:32;35.53;;;16.70;;
15958;SDS011;8078;47.822;9.402;2023-01-23T04:07:58;31.87;;;15.97;;
15958;SDS011;8078;47.822;9.402;2023-01-23T04:10:23;37.37;;;15.73;;
15958;SDS011;8078;47.822;9.402;2023-01-23T04:12:49;38.80;;;15.90;;
15958;SDS011;8078;47.822;9.402;2023-01-23T04:15:14;36.50;;;16.70;;
15958;SDS011;8078;47.822;9.402;2023-01-23T04:17:40;38.83;;;16.67;;
15958;SDS011;8078;47.822;9.402;2023-01-23T04:20:06;34.70;;;16.63;;
15958;SDS011;8078;47.822;9.402;2023-01-23T04:22:32;43.67;;;17.43;;
15958;SDS011;8078;47.822;9.402;2023-01-23T04:24:58;34.33;;;16.47;;
15958;SDS011;8078;47.822;9.402;2023-01-23T04:27:24;34.33;;;16.23;;
15958;SDS011;8078;47.822;9.402;2023-01-23T04:29:49;41.83;;;16.57;;
15958;SDS011;8078;47.822;9.402;2023-01-23T04:32:15;45.23;;;17.00;;
15958;SDS011;8078;47.822;9.402;2023-01-23T04:34:40;38.17;;;17.90;;
15958;SDS011;8078;47.822;9.402;2023-01-23T04:37:06;39.00;;;16.70;;
15958;SDS011;8078;47.822;9.402;2023-01-23T04:39:31;42.20;;;16.70;;
15958;SDS011;8078;47.822;9.402;2023-01-23T04:41:57;38.17;;;17.20;;
15958;SDS011;8078;47.822;9.402;2023-01-23T04:44:23;35.23;;;15.73;;
15958;SDS011;8078;47.822;9.402;2023-01-23T04:46:49;40.53;;;17.63;;
15958;SDS011;8078;47.822;9.402;2023-01-23T04:49:20;41.10;;;17.63;;
15958;SDS011;8078;47.822;9.402;2023-01-23T04:51:47;40.33;;;16.87;;
15958;SDS011;8078;47.822;9.402;2023-01-23T04:54:14;38.37;;;16.73;;
15958;SDS011;8078;47.822;9.402;2023-01-23T04:56:40;32.13;;;15.13;;
15958;SDS011;8078;47.822;9.402;2023-01-23T04:59:06;34.80;;;15.17;;
15958;SDS011;8078;47.822;9.402;2023-01-23T05:01:31;37.80;;;16.40;;
15958;SDS011;8078;47.822;9.402;2023-01-23T05:03:57;33.87;;;16.03;;
15958;SDS011;8078;47.822;9.402;2023-01-23T05:06:22;33.33;;;16.13;;
15958;SDS011;8078;47.822;9.402;2023-01-23T05:08:48;33.97;;;16.03;;
15958;SDS011;8078;47.822;9.402;2023-01-23T05:11:14;35.07;;;15.83;;
15958;SDS011;8078;47.822;9.402;2023-01-23T05:13:39;35.07;;;16.60;;
15958;SDS011;8078;47.822;9.402;2023-01-23T05:16:05;35.13;;;14.90;;
15958;SDS011;8078;47.822;9.402;2023-01-23T05:18:31;30.77;;;14.30;;
15958;SDS011;8078;47.822;9.402;2023-01-23T05:20:56;37.30;;;14.43;;
15958;SDS011;8078;47.822;9.402;2023-01-23T05:23:22;30.37;;;13.43;;
15958;SDS011;8078;47.822;9.402;2023-01-23T05:25:47;35.07;;;15.13;;
15958;SDS011;8078;47.822;9.402;2023-01-23T05:28:13;38.23;;;14.37;;
15958;SDS011;8078;47.822;9.402;2023-01-23T05:30:39;33.47;;;13.90;;
15958;SDS011;8078;47.822;9.402;2023-01-23T05:33:04;36.17;;;14.63;;
15958;SDS011;8078;47.822;9.402;2023-01-23T05:35:30;38.50;;;16.07;;
15958;SDS011;8078;47.822;9.402;2023-01-23T05:37:55;34.97;;;15.20;;
15958;SDS011;8078;47.822;9.402;2023-01-23T05:40:21;37.27;;;16.17;;
15958;SDS011;8078;47.822;9.402;2023-01-23T05:42:47;35.77;;;15.70;;
15958;SDS011;8078;47.822;9.402;2023-01-23T05:45:13;35.23;;;15.33;;
15958;SDS011;8078;47.822;9.402;2023-01-23T05:47:39;31.27;;;15.13;;
15958;SDS011;8078;47.822;9.402;2023-01-23T05:50:06;43.30;;;15.37;;
15958;SDS011;8078;47.822;9.402;2023-01-23T05:52:33;32.63;;;15.37;;
15958;SDS011;8078;47.822;9.402;2023-01-23T05:54:59;34.67;;;15.33;;
15958;SDS011;8078;47.822;9.402;2023-01-23T05:57:25;38.57;;;15.50;;
15958;SDS011;8078;47.822;9.402;2023-01-23T05:59:51;34.37;;;14.90;;
15958;SDS011;8078;47.822;9.402;2023-01-23T06:02:16;30.47;;;14.20;;
15958;SDS011;8078;47.822;9.402;2023-01-23T06:04:42;30.83;;;15.40;;
15958;SDS011;8078;47.822;9.402;2023-01-23T06:07:11;27.90;;;12.73;;
15958;SDS011;8078;47.822;9.402;2023-01-23T06:09:38;31.20;;;13.97;;
15958;SDS011;8078;47.822;9.402;2023-01-23T06:12:03;30.83;;;13.43;;
15958;SDS011;8078;47.822;9.402;2023-01-23T06:14:29;34.10;;;14.83;;
15958;SDS011;8078;47.822;9.402;2023-01-23T06:16:55;31.27;;;13.73;;
15958;SDS011;8078;47.822;9.402;2023-01-23T06:19:20;32.83;;;14.87;;
15958;SDS011;8078;47.822;9.402;2023-01-23T06:21:46;35.97;;;15.37;;
15958;SDS011;8078;47.822;9.402;2023-01-23T06:24:11;36.97;;;16.47;;
15958;SDS011;8078;47.822;9.402;2023-01-23T06:26:37;34.80;;;15.53;;
15958;SDS011;8078;47.822;9.402;2023-01-23T06:29:02;38.87;;;15.13;;
15958;SDS011;8078;47.822;9.402;2023-01-23T06:31:28;36.33;;;16.03;;
15958;SDS011;8078;47.822;9.402;2023-01-23T06:33:56;33.63;;;14.27;;
15958;SDS011;8078;47.822;9.402;2023-01-23T06:36:22;31.33;;;14.20;;
15958;SDS011;8078;47.822;9.402;2023-01-23T06:38:48;38.63;;;16.30;;
15958;SDS011;8078;47.822;9.402;2023-01-23T06:41:14;36.17;;;15.83;;
15958;SDS011;8078;47.822;9.402;2023-01-23T06:43:40;31.77;;;15.57;;
15958;SDS011;8078;47.822;9.402;2023-01-23T06:46:09;30.63;;;13.60;;
15958;SDS011;8078;47.822;9.402;2023-01-23T06:48:35;27.83;;;14.03;;
15958;SDS011;8078;47.822;9.402;2023-01-23T06:51:02;28.80;;;13.97;;
15958;SDS011;8078;47.822;9.402;2023-01-23T06:53:29;30.33;;;14.17;;
15958;SDS011;8078;47.822;9.402;2023-01-23T06:55:58;29.83;;;13.07;;
15958;SDS011;8078;47.822;9.402;2023-01-23T06:58:27;31.17;;;13.10;;
15958;SDS011;8078;47.822;9.402;2023-01-23T07:00:53;29.87;;;14.00;;
15958;SDS011;8078;47.822;9.402;2023-01-23T07:03:19;33.73;;;15.53;;
15958;SDS011;8078;47.822;9.402;2023-01-23T07:05:44;38.83;;;15.13;;
15958;SDS011;8078;47.822;9.402;2023-01-23T07:08:10;35.77;;;15.73;;
15958;SDS011;8078;47.822;9.402;2023-01-23T07:10:36;38.57;;;16.63;;
15958;SDS011;8078;47.822;9.402;2023-01-23T07:13:06;40.97;;;16.00;;
15958;SDS011;8078;47.822;9.402;2023-01-23T07:15:33;38.07;;;16.57;;
15958;SDS011;8078;47.822;9.402;2023-01-23T07:17:59;41.57;;;16.33;;
15958;SDS011;8078;47.822;9.402;2023-01-23T07:20:25;42.87;;;16.37;;
15958;SDS011;8078;47.822;9.402;2023-01-23T07:22:52;37.90;;;17.57;;
15958;SDS011;8078;47.822;9.402;2023-01-23T07:25:19;36.47;;;15.73;;
15958;SDS011;8078;47.822;9.402;2023-01-23T07:27:45;38.53;;;16.80;;
15958;SDS011;8078;47.822;9.402;2023-01-23T07:30:10;38.17;;;15.17;;
15958;SDS011;8078;47.822;9.402;2023-01-23T07:32:36;41.30;;;16.97;;
15958;SDS011;8078;47.822;9.402;2023-01-23T07:35:02;36.83;;;16.30;;
15958;SDS011;8078;47.822;9.402;2023-01-23T07:37:27;38.00;;;16.50;;
15958;SDS011;8078;47.822;9.402;2023-01-23T07:39:53;39.93;;;17.03;;
15958;SDS011;8078;47.822;9.402;2023-01-23T07:42:18;50.97;;;16.50;;
15958;SDS011;8078;47.822;9.402;2023-01-23T07:44:44;39.37;;;16.97;;
15958;SDS011;8078;47.822;9.402;2023-01-23T07:47:10;51.20;;;16.97;;
15958;SDS011;8078;47.822;9.402;2023-01-23T07:49:35;43.47;;;17.40;;
15958;SDS011;8078;47.822;9.402;2023-01-23T07:52:01;49.20;;;16.00;;
15958;SDS011;8078;47.822;9.402;2023-01-23T07:54:27;40.27;;;16.87;;
15958;SDS011;8078;47.822;9.402;2023-01-23T07:56:53;44.57;;;18.17;;
15958;SDS011;8078;47.822;9.402;2023-01-23T07:59:18;42.37;;;16.57;;
15958;SDS011;8078;47.822;9.402;2023-01-23T08:01:44;40.83;;;15.50;;
15958;SDS011;8078;47.822;9.402;2023-01-23T08:04:10;47.17;;;18.20;;
15958;SDS011;8078;47.822;9.402;2023-01-23T08:06:35;44.10;;;16.43;;
15958;SDS011;8078;47.822;9.402;2023-01-23T08:09:02;41.77;;;15.97;;
15958;SDS011;8078;47.822;9.402;2023-01-23T08:11:27;42.73;;;17.50;;
15958;SDS011;8078;47.822;9.402;2023-01-23T08:13:53;39.77;;;16.10;;
15958;SDS011;8078;47.822;9.402;2023-01-23T08:16:19;43.67;;;15.53;;
15958;SDS011;8078;47.822;9.402;2023-01-23T08:18:44;42.47;;;15.57;;
15958;SDS011;8078;47.822;9.402;2023-01-23T08:21:10;44.63;;;15.47;;
15958;SDS011;8078;47.822;9.402;2023-01-23T08:23:36;37.70;;;15.60;;
15958;SDS011;8078;47.822;9.402;2023-01-23T08:26:03;40.10;;;13.37;;
15958;SDS011;8078;47.822;9.402;2023-01-23T08:28:29;51.00;;;17.37;;
15958;SDS011;8078;47.822;9.402;2023-01-23T08:30:59;40.17;;;14.53;;
15958;SDS011;8078;47.822;9.402;2023-01-23T08:33:25;44.43;;;16.07;;
15958;SDS011;8078;47.822;9.402;2023-01-23T08:35:51;44.13;;;13.87;;
15958;SDS011;8078;47.822;9.402;2023-01-23T08:38:18;35.60;;;15.20;;
15958;SDS011;8078;47.822;9.402;2023-01-23T08:40:45;43.97;;;15.73;;
15958;SDS011;8078;47.822;9.402;2023-01-23T08:43:12;49.17;;;15.80;;
15958;SDS011;8078;47.822;9.402;2023-01-23T08:45:39;47.43;;;16.33;;
15958;SDS011;8078;47.822;9.402;2023-01-23T08:48:05;40.03;;;14.00;;
15958;SDS011;8078;47.822;9.402;2023-01-23T08:50:31;50.77;;;16.40;;
15958;SDS011;8078;47.822;9.402;2023-01-23T08:52:57;41.67;;;16.17;;
15958;SDS011;8078;47.822;9.402;2023-01-23T08:55:23;39.90;;;14.43;;
15958;SDS011;8078;47.822;9.402;2023-01-23T08:57:48;59.43;;;16.43;;
15958;SDS011;8078;47.822;9.402;2023-01-23T09:00:14;44.30;;;15.77;;
15958;SDS011;8078;47.822;9.402;2023-01-23T09:02:40;39.97;;;17.77;;
15958;SDS011;8078;47.822;9.402;2023-01-23T09:05:06;37.30;;;14.57;;
15958;SDS011;8078;47.822;9.402;2023-01-23T09:07:31;62.03;;;17.03;;
15958;SDS011;8078;47.822;9.402;2023-01-23T09:10:00;48.70;;;17.03;;
15958;SDS011;8078;47.822;9.402;2023-01-23T09:12:26;45.40;;;17.40;;
15958;SDS011;8078;47.822;9.402;2023-01-23T09:14:52;69.83;;;18.37;;
15958;SDS011;8078;47.822;9.402;2023-01-23T09:17:18;42.17;;;16.73;;
15958;SDS011;8078;47.822;9.402;2023-01-23T09:19:44;69.70;;;16.90;;
15958;SDS011;8078;47.822;9.402;2023-01-23T09:22:09;54.90;;;15.17;;
15958;SDS011;8078;47.822;9.402;2023-01-23T09:24:35;66.00;;;16.97;;
15958;SDS011;8078;47.822;9.402;2023-01-23T09:27:00;55.37;;;16.77;;
15958;SDS011;8078;47.822;9.402;2023-01-23T09:29:26;75.90;;;15.47;;
15958;SDS011;8078;47.822;9.402;2023-01-23T09:31:51;49.00;;;16.63;;
15958;SDS011;8078;47.822;9.402;2023-01-23T09:34:17;114.43;;;18.57;;
15958;SDS011;8078;47.822;9.402;2023-01-23T09:36:43;82.20;;;15.27;;
15958;SDS011;8078;47.822;9.402;2023-01-23T09:39:08;50.17;;;15.40;;
15958;SDS011;8078;47.822;9.402;2023-01-23T09:41:34;106.83;;;17.87;;
15958;SDS011;8078;47.822;9.402;2023-01-23T09:46:56;39.27;;;15.50;;
15958;SDS011;8078;47.822;9.402;2023-01-23T09:52:20;55.77;;;15.47;;
15958;SDS011;8078;47.822;9.402;2023-01-23T09:54:57;95.87;;;17.90;;
15958;SDS011;8078;47.822;9.402;2023-01-23T09:57:48;54.63;;;14.67;;
15958;SDS011;8078;47.822;9.402;2023-01-23T10:00:26;51.50;;;15.00;;
15958;SDS011;8078;47.822;9.402;2023-01-23T10:02:57;79.30;;;17.57;;
15958;SDS011;8078;47.822;9.402;2023-01-23T10:11:28;63.60;;;13.87;;
15958;SDS011;8078;47.822;9.402;2023-01-23T10:22:40;67.20;;;15.50;;
15958;SDS011;8078;47.822;9.402;2023-01-23T10:25:19;86.23;;;17.10;;
15958;SDS011;8078;47.822;9.402;2023-01-23T10:27:48;118.80;;;18.53;;
15958;SDS011;8078;47.822;9.402;2023-01-23T10:30:23;128.77;;;18.23;;
15958;SDS011;8078;47.822;9.402;2023-01-23T10:32:59;45.30;;;16.43;;
15958;SDS011;8078;47.822;9.402;2023-01-23T10:35:38;59.07;;;16.97;;
15958;SDS011;8078;47.822;9.402;2023-01-23T10:40:55;56.73;;;16.53;;
15958;SDS011;8078;47.822;9.402;2023-01-23T10:43:42;59.80;;;16.63;;
15958;SDS011;8078;47.822;9.402;2023-01-23T10:49:25;41.70;;;16.23;;
15958;SDS011;8078;47.822;9.402;2023-01-23T10:52:02;51.83;;;16.60;;
15958;SDS011;8078;47.822;9.402;2023-01-23T10:54:28;37.13;;;16.40;;
15958;SDS011;8078;47.822;9.402;2023-01-23T10:56:58;50.00;;;17.17;;
15958;SDS011;8078;47.822;9.402;2023-01-23T11:02:45;42.77;;;15.77;;
15958;SDS011;8078;47.822;9.402;2023-01-23T11:08:20;35.40;;;14.63;;
15958;SDS011;8078;47.822;9.402;2023-01-23T11:10:51;37.67;;;15.60;;
15958;SDS011;8078;47.822;9.402;2023-01-23T11:13:24;55.90;;;17.53;;
15958;SDS011;8078;47.822;9.402;2023-01-23T11:15:52;43.70;;;15.43;;
15958;SDS011;8078;47.822;9.402;2023-01-23T11:18:28;43.17;;;16.53;;
15958;SDS011;8078;47.822;9.402;2023-01-23T11:20:59;37.63;;;14.83;;
15958;SDS011;8078;47.822;9.402;2023-01-23T11:23:26;32.77;;;16.20;;
15958;SDS011;8078;47.822;9.402;2023-01-23T11:25:53;34.23;;;15.93;;
15958;SDS011;8078;47.822;9.402;2023-01-23T11:33:39;43.07;;;17.63;;
15958;SDS011;8078;47.822;9.402;2023-01-23T11:38:46;39.10;;;17.63;;
15958;SDS011;8078;47.822;9.402;2023-01-23T11:41:20;35.47;;;14.70;;
15958;SDS011;8078;47.822;9.402;2023-01-23T11:43:51;37.57;;;17.00;;
15958;SDS011;8078;47.822;9.402;2023-01-23T11:46:42;38.30;;;16.77;;
15958;SDS011;8078;47.822;9.402;2023-01-23T11:58:08;50.13;;;18.00;;
15958;SDS011;8078;47.822;9.402;2023-01-23T12:09:17;40.70;;;17.03;;
15958;SDS011;8078;47.822;9.402;2023-01-23T12:12:04;35.70;;;15.63;;
15958;SDS011;8078;47.822;9.402;2023-01-23T12:14:59;43.40;;;16.27;;
15958;SDS011;8078;47.822;9.402;2023-01-23T12:25:37;42.57;;;18.77;;
15958;SDS011;8078;47.822;9.402;2023-01-23T12:33:33;41.83;;;15.57;;
15958;SDS011;8078;47.822;9.402;2023-01-23T12:36:23;44.23;;;17.17;;
15958;SDS011;8078;47.822;9.402;2023-01-23T12:39:20;46.17;;;18.20;;
15958;SDS011;8078;47.822;9.402;2023-01-23T12:42:03;45.23;;;17.93;;
15958;SDS011;8078;47.822;9.402;2023-01-23T12:47:09;42.40;;;17.93;;
15958;SDS011;8078;47.822;9.402;2023-01-23T12:49:48;44.13;;;15.50;;
15958;SDS011;8078;47.822;9.402;2023-01-23T12:57:22;48.80;;;18.53;;
15958;SDS011;8078;47.822;9.402;2023-01-23T13:00:15;43.77;;;18.47;;
15958;SDS011;8078;47.822;9.402;2023-01-23T13:08:39;52.03;;;19.20;;
15958;SDS011;8078;47.822;9.402;2023-01-23T13:13:58;55.23;;;21.20;;
15958;SDS011;8078;47.822;9.402;2023-01-23T13:16:30;59.97;;;20.87;;
15958;SDS011;8078;47.822;9.402;2023-01-23T13:18:56;47.23;;;20.83;;
15958;SDS011;8078;47.822;9.402;2023-01-23T13:24:43;61.17;;;20.63;;
15958;SDS011;8078;47.822;9.402;2023-01-23T13:29:58;57.03;;;18.60;;
15958;SDS011;8078;47.822;9.402;2023-01-23T13:32:27;42.23;;;16.57;;
15958;SDS011;8078;47.822;9.402;2023-01-23T13:34:53;79.07;;;20.97;;
15958;SDS011;8078;47.822;9.402;2023-01-23T13:37:46;53.63;;;19.03;;
15958;SDS011;8078;47.822;9.402;2023-01-23T13:40:19;70.60;;;20.27;;
15958;SDS011;8078;47.822;9.402;2023-01-23T13:42:46;51.17;;;19.00;;
15958;SDS011;8078;47.822;9.402;2023-01-23T13:45:21;60.47;;;19.23;;
15958;SDS011;8078;47.822;9.402;2023-01-23T13:51:20;46.60;;;18.73;;
15958;SDS011;8078;47.822;9.402;2023-01-23T13:53:47;50.67;;;18.50;;
15958;SDS011;8078;47.822;9.402;2023-01-23T13:56:34;47.00;;;18.97;;
15958;SDS011;8078;47.822;9.402;2023-01-23T14:02:23;65.07;;;18.70;;
15958;SDS011;8078;47.822;9.402;2023-01-23T14:05:13;49.90;;;18.43;;
15958;SDS011;8078;47.822;9.402;2023-01-23T14:07:44;47.07;;;17.13;;
15958;SDS011;8078;47.822;9.402;2023-01-23T14:12:40;39.60;;;18.10;;
15958;SDS011;8078;47.822;9.402;2023-01-23T14:15:22;43.27;;;17.40;;
15958;SDS011;8078;47.822;9.402;2023-01-23T14:18:26;51.90;;;18.90;;
15958;SDS011;8078;47.822;9.402;2023-01-23T14:21:00;44.90;;;18.13;;
15958;SDS011;8078;47.822;9.402;2023-01-23T14:23:33;44.30;;;18.20;;
15958;SDS011;8078;47.822;9.402;2023-01-23T14:26:02;65.10;;;19.10;;
15958;SDS011;8078;47.822;9.402;2023-01-23T14:28:29;49.77;;;19.00;;
15958;SDS011;8078;47.822;9.402;2023-01-23T14:31:04;46.50;;;17.93;;
15958;SDS011;8078;47.822;9.402;2023-01-23T14:33:41;46.27;;;19.70;;
15958;SDS011;8078;47.822;9.402;2023-01-23T14:36:13;41.33;;;17.70;;
15958;SDS011;8078;47.822;9.402;2023-01-23T14:38:41;46.43;;;18.27;;
15958;SDS011;8078;47.822;9.402;2023-01-23T14:41:08;46.00;;;19.40;;
15958;SDS011;8078;47.822;9.402;2023-01-23T14:43:34;41.87;;;19.10;;
15958;SDS011;8078;47.822;9.402;2023-01-23T14:46:02;41.33;;;18.97;;
15958;SDS011;8078;47.822;9.402;2023-01-23T14:48:33;40.80;;;18.30;;
15958;SDS011;8078;47.822;9.402;2023-01-23T14:51:14;37.50;;;18.47;;
15958;SDS011;8078;47.822;9.402;2023-01-23T14:53:57;39.57;;;17.93;;
15958;SDS011;8078;47.822;9.402;2023-01-23T14:56:34;38.33;;;17.70;;
15958;SDS011;8078;47.822;9.402;2023-01-23T14:59:04;41.17;;;17.73;;
15958;SDS011;8078;47.822;9.402;2023-01-23T15:01:31;36.60;;;16.93;;
15958;SDS011;8078;47.822;9.402;2023-01-23T15:04:18;37.90;;;16.93;;
15958;SDS011;8078;47.822;9.402;2023-01-23T15:06:48;45.90;;;18.47;;
15958;SDS011;8078;47.822;9.402;2023-01-23T15:09:32;43.67;;;18.20;;
15958;SDS011;8078;47.822;9.402;2023-01-23T15:12:06;37.20;;;16.50;;
15958;SDS011;8078;47.822;9.402;2023-01-23T15:14:38;37.90;;;18.27;;
15958;SDS011;8078;47.822;9.402;2023-01-23T15:17:05;43.07;;;17.90;;
15958;SDS011;8078;47.822;9.402;2023-01-23T15:19:37;46.30;;;18.53;;
15958;SDS011;8078;47.822;9.402;2023-01-23T15:22:06;41.67;;;18.10;;
15958;SDS011;8078;47.822;9.402;2023-01-23T15:24:40;44.17;;;18.63;;
15958;SDS011;8078;47.822;9.402;2023-01-23T15:27:21;46.23;;;19.13;;
15958;SDS011;8078;47.822;9.402;2023-01-23T15:29:51;59.33;;;19.73;;
15958;SDS011;8078;47.822;9.402;2023-01-23T15:32:37;147.13;;;22.13;;
15958;SDS011;8078;47.822;9.402;2023-01-23T15:35:11;124.43;;;22.43;;
15958;SDS011;8078;47.822;9.402;2023-01-23T15:37:44;114.50;;;22.03;;
15958;SDS011;8078;47.822;9.402;2023-01-23T15:40:18;278.80;;;30.60;;
15958;SDS011;8078;47.822;9.402;2023-01-23T15:43:01;427.73;;;39.10;;
15958;SDS011;8078;47.822;9.402;2023-01-23T15:45:28;264.30;;;29.67;;
15958;SDS011;8078;47.822;9.402;2023-01-23T15:47:53;243.57;;;27.27;;
15958;SDS011;8078;47.822;9.402;2023-01-23T15:50:19;310.60;;;30.20;;
15958;SDS011;8078;47.822;9.402;2023-01-23T15:52:46;411.90;;;37.00;;
15958;SDS011;8078;47.822;9.402;2023-01-23T15:55:13;523.07;;;42.33;;
15958;SDS011;8078;47.822;9.402;2023-01-23T15:57:39;415.73;;;35.50;;
15958;SDS011;8078;47.822;9.402;2023-01-23T16:00:15;418.43;;;35.13;;
15958;SDS011;8078;47.822;9.402;2023-01-23T16:02:44;554.73;;;45.40;;
15958;SDS011;8078;47.822;9.402;2023-01-23T16:05:10;433.60;;;36.37;;
15958;SDS011;8078;47.822;9.402;2023-01-23T16:07:37;589.57;;;47.00;;
15958;SDS011;8078;47.822;9.402;2023-01-23T16:10:10;611.97;;;49.47;;
15958;SDS011;8078;47.822;9.402;2023-01-23T16:12:39;665.53;;;57.33;;
15958;SDS011;8078;47.822;9.402;2023-01-23T16:15:12;455.40;;;37.77;;
15958;SDS011;8078;47.822;9.402;2023-01-23T16:17:43;497.17;;;42.93;;
15958;SDS011;8078;47.822;9.402;2023-01-23T16:20:17;558.97;;;48.27;;
15958;SDS011;8078;47.822;9.402;2023-01-23T16:22:49;572.70;;;48.77;;
15958;SDS011;8078;47.822;9.402;2023-01-23T16:27:53;358.60;;;34.40;;
15958;SDS011;8078;47.822;9.402;2023-01-23T16:30:19;621.93;;;53.90;;
15958;SDS011;8078;47.822;9.402;2023-01-23T16:32:46;410.43;;;38.27;;
15958;SDS011;8078;47.822;9.402;2023-01-23T16:35:12;443.40;;;40.70;;
15958;SDS011;8078;47.822;9.402;2023-01-23T16:37:40;290.03;;;31.10;;
15958;SDS011;8078;47.822;9.402;2023-01-23T16:40:17;218.87;;;26.57;;
15958;SDS011;8078;47.822;9.402;2023-01-23T16:42:45;180.17;;;23.97;;